sensor_id;sensor_type;location;lat;lon;timestamp;temperature;humidity
44166;DHT22;30476;53.468;9.826;2023-05-10T00:00:52;16.80;56.00
44166;DHT22;30476;53.468;9.826;2023-05-10T00:03:18;16.70;56.00
44166;DHT22;30476;53.468;9.826;2023-05-10T00:05:44;16.60;56.20
44166;DHT22;30476;53.468;9.826;2023-05-10T00:08:10;16.60;56.40
44166;DHT22;30476;53.468;9.826;2023-05-10T00:10:36;16.60;56.60
44166;DHT22;30476;53.468;9.826;2023-05-10T00:13:03;16.60;56.70
44166;DHT22;30476;53.468;9.826;2023-05-10T00:15:28;16.60;56.90
44166;DHT22;30476;53.468;9.826;2023-05-10T00:17:56;16.50;57.00
44166;DHT22;30476;53.468;9.826;2023-05-10T00:20:22;16.50;57.20
44166;DHT22;30476;53.468;9.826;2023-05-10T00:22:48;16.50;57.40
44166;DHT22;30476;53.468;9.826;2023-05-10T00:25:14;16.50;57.60
44166;DHT22;30476;53.468;9.826;2023-05-10T00:27:39;16.50;57.60
44166;DHT22;30476;53.468;9.826;2023-05-10T00:30:06;16.40;58.00
44166;DHT22;30476;53.468;9.826;2023-05-10T00:32:32;16.40;58.40
44166;DHT22;30476;53.468;9.826;2023-05-10T00:34:58;16.40;58.40
44166;DHT22;30476;53.468;9.826;2023-05-10T00:37:24;16.40;58.60
44166;DHT22;30476;53.468;9.826;2023-05-10T00:39:49;16.30;58.80
44166;DHT22;30476;53.468;9.826;2023-05-10T00:42:15;16.20;58.90
44166;DHT22;30476;53.468;9.826;2023-05-10T00:44:41;16.20;58.80
44166;DHT22;30476;53.468;9.826;2023-05-10T00:47:07;16.20;58.90
44166;DHT22;30476;53.468;9.826;2023-05-10T00:49:34;16.20;59.30
44166;DHT22;30476;53.468;9.826;2023-05-10T00:52:00;16.20;59.40
44166;DHT22;30476;53.468;9.826;2023-05-10T00:54:27;16.20;59.50
44166;DHT22;30476;53.468;9.826;2023-05-10T00:56:53;16.10;59.70
44166;DHT22;30476;53.468;9.826;2023-05-10T00:59:19;16.10;59.90
44166;DHT22;30476;53.468;9.826;2023-05-10T01:01:45;16.00;60.00
44166;DHT22;30476;53.468;9.826;2023-05-10T01:04:12;16.00;60.30
44166;DHT22;30476;53.468;9.826;2023-05-10T01:06:42;16.00;60.30
44166;DHT22;30476;53.468;9.826;2023-05-10T01:09:08;16.00;60.50
44166;DHT22;30476;53.468;9.826;2023-05-10T01:11:35;16.00;60.80
44166;DHT22;30476;53.468;9.826;2023-05-10T01:14:02;16.00;61.00
44166;DHT22;30476;53.468;9.826;2023-05-10T01:16:29;15.90;61.20
44166;DHT22;30476;53.468;9.826;2023-05-10T01:18:57;15.90;61.20
44166;DHT22;30476;53.468;9.826;2023-05-10T01:27:11;15.80;61.50
44166;DHT22;30476;53.468;9.826;2023-05-10T01:32:43;15.80;62.00
44166;DHT22;30476;53.468;9.826;2023-05-10T01:35:26;15.80;62.30
44166;DHT22;30476;53.468;9.826;2023-05-10T01:40:42;15.70;62.70
44166;DHT22;30476;53.468;9.826;2023-05-10T01:43:19;15.60;62.70
44166;DHT22;30476;53.468;9.826;2023-05-10T01:46:05;15.60;63.10
44166;DHT22;30476;53.468;9.826;2023-05-10T01:48:47;15.60;63.20
44166;DHT22;30476;53.468;9.826;2023-05-10T01:51:18;15.50;63.30
44166;DHT22;30476;53.468;9.826;2023-05-10T01:53:46;15.50;63.50
44166;DHT22;30476;53.468;9.826;2023-05-10T01:56:13;15.50;63.60
44166;DHT22;30476;53.468;9.826;2023-05-10T01:58:43;15.50;63.80
44166;DHT22;30476;53.468;9.826;2023-05-10T02:01:11;15.50;64.00
44166;DHT22;30476;53.468;9.826;2023-05-10T02:03:38;15.50;64.00
44166;DHT22;30476;53.468;9.826;2023-05-10T02:06:05;15.50;64.50
44166;DHT22;30476;53.468;9.826;2023-05-10T02:08:35;15.40;64.40
44166;DHT22;30476;53.468;9.826;2023-05-10T02:11:02;15.40;64.40
44166;DHT22;30476;53.468;9.826;2023-05-10T02:13:29;15.50;64.40
44166;DHT22;30476;53.468;9.826;2023-05-10T02:15:57;15.40;64.60
44166;DHT22;30476;53.468;9.826;2023-05-10T02:18:24;15.40;64.80
44166;DHT22;30476;53.468;9.826;2023-05-10T02:20:52;15.40;64.80
44166;DHT22;30476;53.468;9.826;2023-05-10T02:23:20;15.40;65.80
44166;DHT22;30476;53.468;9.826;2023-05-10T02:25:47;15.40;65.30
44166;DHT22;30476;53.468;9.826;2023-05-10T02:28:14;15.40;65.30
44166;DHT22;30476;53.468;9.826;2023-05-10T02:30:41;15.30;65.40
44166;DHT22;30476;53.468;9.826;2023-05-10T02:33:07;15.30;65.40
44166;DHT22;30476;53.468;9.826;2023-05-10T02:35:33;15.30;65.50
44166;DHT22;30476;53.468;9.826;2023-05-10T02:38:00;15.30;65.60
44166;DHT22;30476;53.468;9.826;2023-05-10T02:40:27;15.30;65.80
44166;DHT22;30476;53.468;9.826;2023-05-10T02:42:55;15.30;66.10
44166;DHT22;30476;53.468;9.826;2023-05-10T02:45:26;15.30;66.20
44166;DHT22;30476;53.468;9.826;2023-05-10T02:47:53;15.20;66.90
44166;DHT22;30476;53.468;9.826;2023-05-10T02:50:20;15.20;66.20
44166;DHT22;30476;53.468;9.826;2023-05-10T02:52:51;15.30;66.60
44166;DHT22;30476;53.468;9.826;2023-05-10T02:55:22;15.20;66.60
44166;DHT22;30476;53.468;9.826;2023-05-10T02:57:59;15.20;66.80
44166;DHT22;30476;53.468;9.826;2023-05-10T03:00:25;15.20;66.70
44166;DHT22;30476;53.468;9.826;2023-05-10T03:02:51;15.20;67.10
44166;DHT22;30476;53.468;9.826;2023-05-10T03:05:18;15.10;67.10
44166;DHT22;30476;53.468;9.826;2023-05-10T03:07:44;15.10;67.40
44166;DHT22;30476;53.468;9.826;2023-05-10T03:10:10;15.10;67.30
44166;DHT22;30476;53.468;9.826;2023-05-10T03:13:01;15.10;67.40
44166;DHT22;30476;53.468;9.826;2023-05-10T03:15:58;15.10;67.60
44166;DHT22;30476;53.468;9.826;2023-05-10T03:21:07;15.10;68.00
44166;DHT22;30476;53.468;9.826;2023-05-10T03:23:47;15.00;67.90
44166;DHT22;30476;53.468;9.826;2023-05-10T03:26:20;15.00;68.10
44166;DHT22;30476;53.468;9.826;2023-05-10T03:28:47;15.00;68.10
44166;DHT22;30476;53.468;9.826;2023-05-10T03:31:14;15.00;68.30
44166;DHT22;30476;53.468;9.826;2023-05-10T03:33:47;15.00;68.30
44166;DHT22;30476;53.468;9.826;2023-05-10T03:36:13;15.00;68.40
44166;DHT22;30476;53.468;9.826;2023-05-10T03:38:39;15.00;68.50
44166;DHT22;30476;53.468;9.826;2023-05-10T03:41:05;14.90;68.80
44166;DHT22;30476;53.468;9.826;2023-05-10T03:43:31;14.90;69.00
44166;DHT22;30476;53.468;9.826;2023-05-10T03:45:57;14.90;69.10
44166;DHT22;30476;53.468;9.826;2023-05-10T03:48:22;14.90;69.40
44166;DHT22;30476;53.468;9.826;2023-05-10T03:50:48;14.90;69.20
44166;DHT22;30476;53.468;9.826;2023-05-10T03:53:15;14.90;69.30
44166;DHT22;30476;53.468;9.826;2023-05-10T03:55:41;14.90;69.30
44166;DHT22;30476;53.468;9.826;2023-05-10T03:58:06;14.90;69.50
44166;DHT22;30476;53.468;9.826;2023-05-10T04:00:35;14.90;69.60
44166;DHT22;30476;53.468;9.826;2023-05-10T04:03:01;14.90;69.80
44166;DHT22;30476;53.468;9.826;2023-05-10T04:05:27;14.90;70.00
44166;DHT22;30476;53.468;9.826;2023-05-10T04:07:53;14.80;70.00
44166;DHT22;30476;53.468;9.826;2023-05-10T04:10:18;14.90;70.40
44166;DHT22;30476;53.468;9.826;2023-05-10T04:12:44;14.80;70.20
44166;DHT22;30476;53.468;9.826;2023-05-10T04:15:10;14.80;70.50
44166;DHT22;30476;53.468;9.826;2023-05-10T04:17:36;14.80;70.40
44166;DHT22;30476;53.468;9.826;2023-05-10T04:20:01;14.80;70.70
44166;DHT22;30476;53.468;9.826;2023-05-10T04:22:27;14.80;70.70
44166;DHT22;30476;53.468;9.826;2023-05-10T04:24:54;14.80;71.20
44166;DHT22;30476;53.468;9.826;2023-05-10T04:27:20;14.80;71.00
44166;DHT22;30476;53.468;9.826;2023-05-10T04:29:46;14.80;71.20
44166;DHT22;30476;53.468;9.826;2023-05-10T04:32:11;14.80;71.60
44166;DHT22;30476;53.468;9.826;2023-05-10T04:34:37;14.80;71.40
44166;DHT22;30476;53.468;9.826;2023-05-10T04:37:03;14.80;71.50
44166;DHT22;30476;53.468;9.826;2023-05-10T04:39:28;14.80;71.60
44166;DHT22;30476;53.468;9.826;2023-05-10T04:41:54;14.90;71.80
44166;DHT22;30476;53.468;9.826;2023-05-10T04:44:20;14.80;72.00
44166;DHT22;30476;53.468;9.826;2023-05-10T04:46:46;14.80;72.00
44166;DHT22;30476;53.468;9.826;2023-05-10T04:49:12;14.80;72.20
44166;DHT22;30476;53.468;9.826;2023-05-10T04:51:37;14.80;72.00
44166;DHT22;30476;53.468;9.826;2023-05-10T04:54:03;14.80;72.80
44166;DHT22;30476;53.468;9.826;2023-05-10T04:56:29;14.90;73.00
44166;DHT22;30476;53.468;9.826;2023-05-10T04:58:55;14.80;73.00
44166;DHT22;30476;53.468;9.826;2023-05-10T05:01:20;14.80;72.90
44166;DHT22;30476;53.468;9.826;2023-05-10T05:03:46;14.80;73.30
44166;DHT22;30476;53.468;9.826;2023-05-10T05:06:12;14.80;73.20
44166;DHT22;30476;53.468;9.826;2023-05-10T05:08:37;14.80;73.30
44166;DHT22;30476;53.468;9.826;2023-05-10T05:11:03;14.80;73.30
44166;DHT22;30476;53.468;9.826;2023-05-10T05:13:29;14.80;73.20
44166;DHT22;30476;53.468;9.826;2023-05-10T05:15:55;14.80;73.20
44166;DHT22;30476;53.468;9.826;2023-05-10T05:18:20;14.90;73.70
44166;DHT22;30476;53.468;9.826;2023-05-10T05:20:46;14.90;73.40
44166;DHT22;30476;53.468;9.826;2023-05-10T05:23:12;14.90;73.40
44166;DHT22;30476;53.468;9.826;2023-05-10T05:25:38;14.90;73.40
44166;DHT22;30476;53.468;9.826;2023-05-10T05:28:04;15.00;73.60
44166;DHT22;30476;53.468;9.826;2023-05-10T05:30:30;15.00;73.70
44166;DHT22;30476;53.468;9.826;2023-05-10T05:32:55;15.00;73.70
44166;DHT22;30476;53.468;9.826;2023-05-10T05:35:22;15.10;73.60
44166;DHT22;30476;53.468;9.826;2023-05-10T05:37:47;15.10;74.00
44166;DHT22;30476;53.468;9.826;2023-05-10T05:40:13;15.20;73.70
44166;DHT22;30476;53.468;9.826;2023-05-10T05:42:39;15.20;73.70
44166;DHT22;30476;53.468;9.826;2023-05-10T05:45:05;15.30;74.10
44166;DHT22;30476;53.468;9.826;2023-05-10T05:47:32;15.30;73.80
44166;DHT22;30476;53.468;9.826;2023-05-10T05:49:57;15.40;73.70
44166;DHT22;30476;53.468;9.826;2023-05-10T05:52:23;15.50;73.80
44166;DHT22;30476;53.468;9.826;2023-05-10T05:54:49;15.50;73.40
44166;DHT22;30476;53.468;9.826;2023-05-10T05:57:15;15.50;73.40
44166;DHT22;30476;53.468;9.826;2023-05-10T05:59:40;15.50;73.30
44166;DHT22;30476;53.468;9.826;2023-05-10T06:02:10;15.60;73.60
44166;DHT22;30476;53.468;9.826;2023-05-10T06:04:35;15.70;73.70
44166;DHT22;30476;53.468;9.826;2023-05-10T06:07:01;15.70;73.70
44166;DHT22;30476;53.468;9.826;2023-05-10T06:09:27;15.70;73.80
44166;DHT22;30476;53.468;9.826;2023-05-10T06:11:53;15.80;74.10
44166;DHT22;30476;53.468;9.826;2023-05-10T06:14:20;15.80;74.00
44166;DHT22;30476;53.468;9.826;2023-05-10T06:16:46;15.90;73.80
44166;DHT22;30476;53.468;9.826;2023-05-10T06:19:12;15.90;73.80
44166;DHT22;30476;53.468;9.826;2023-05-10T06:21:37;16.00;74.50
44166;DHT22;30476;53.468;9.826;2023-05-10T06:24:04;16.00;75.40
44166;DHT22;30476;53.468;9.826;2023-05-10T06:26:30;16.00;74.00
44166;DHT22;30476;53.468;9.826;2023-05-10T06:28:56;16.10;73.80
44166;DHT22;30476;53.468;9.826;2023-05-10T06:31:22;16.10;74.50
44166;DHT22;30476;53.468;9.826;2023-05-10T06:33:48;16.20;74.40
44166;DHT22;30476;53.468;9.826;2023-05-10T06:36:13;16.30;74.20
44166;DHT22;30476;53.468;9.826;2023-05-10T06:38:39;16.30;74.40
44166;DHT22;30476;53.468;9.826;2023-05-10T06:41:05;16.30;73.60
44166;DHT22;30476;53.468;9.826;2023-05-10T06:43:31;16.40;73.70
44166;DHT22;30476;53.468;9.826;2023-05-10T06:45:57;16.50;74.20
44166;DHT22;30476;53.468;9.826;2023-05-10T06:48:23;16.50;74.00
44166;DHT22;30476;53.468;9.826;2023-05-10T06:50:49;16.60;74.10
44166;DHT22;30476;53.468;9.826;2023-05-10T06:53:14;16.60;73.80
44166;DHT22;30476;53.468;9.826;2023-05-10T06:55:41;16.70;73.40
44166;DHT22;30476;53.468;9.826;2023-05-10T06:58:06;16.70;73.50
44166;DHT22;30476;53.468;9.826;2023-05-10T07:00:32;16.80;73.30
44166;DHT22;30476;53.468;9.826;2023-05-10T07:02:58;16.80;73.30
44166;DHT22;30476;53.468;9.826;2023-05-10T07:05:24;16.90;72.90
44166;DHT22;30476;53.468;9.826;2023-05-10T07:07:50;16.90;72.80
44166;DHT22;30476;53.468;9.826;2023-05-10T07:10:15;16.90;72.70
44166;DHT22;30476;53.468;9.826;2023-05-10T07:12:41;17.00;73.00
44166;DHT22;30476;53.468;9.826;2023-05-10T07:15:08;16.90;72.70
44166;DHT22;30476;53.468;9.826;2023-05-10T07:17:34;17.00;72.90
44166;DHT22;30476;53.468;9.826;2023-05-10T07:19:59;17.00;73.20
44166;DHT22;30476;53.468;9.826;2023-05-10T07:22:26;17.10;72.90
44166;DHT22;30476;53.468;9.826;2023-05-10T07:24:51;17.20;73.20
44166;DHT22;30476;53.468;9.826;2023-05-10T07:27:17;17.30;73.50
44166;DHT22;30476;53.468;9.826;2023-05-10T07:29:43;17.30;73.10
44166;DHT22;30476;53.468;9.826;2023-05-10T07:32:08;17.30;72.60
44166;DHT22;30476;53.468;9.826;2023-05-10T07:34:34;17.30;72.40
44166;DHT22;30476;53.468;9.826;2023-05-10T07:37:00;17.30;72.80
44166;DHT22;30476;53.468;9.826;2023-05-10T07:39:27;17.40;72.90
44166;DHT22;30476;53.468;9.826;2023-05-10T07:41:53;17.40;73.40
44166;DHT22;30476;53.468;9.826;2023-05-10T07:44:19;17.40;74.40
44166;DHT22;30476;53.468;9.826;2023-05-10T07:46:46;17.40;75.80
44166;DHT22;30476;53.468;9.826;2023-05-10T07:49:12;17.40;75.40
44166;DHT22;30476;53.468;9.826;2023-05-10T07:51:37;17.50;76.00
44166;DHT22;30476;53.468;9.826;2023-05-10T07:54:03;17.40;76.90
44166;DHT22;30476;53.468;9.826;2023-05-10T07:56:30;17.40;77.00
44166;DHT22;30476;53.468;9.826;2023-05-10T07:59:01;17.40;78.50
44166;DHT22;30476;53.468;9.826;2023-05-10T08:01:30;17.30;78.30
44166;DHT22;30476;53.468;9.826;2023-05-10T08:03:56;17.30;79.10
44166;DHT22;30476;53.468;9.826;2023-05-10T08:06:22;17.30;79.80
44166;DHT22;30476;53.468;9.826;2023-05-10T08:08:49;17.20;80.30
44166;DHT22;30476;53.468;9.826;2023-05-10T08:11:16;17.20;81.70
44166;DHT22;30476;53.468;9.826;2023-05-10T08:13:43;17.20;81.70
44166;DHT22;30476;53.468;9.826;2023-05-10T08:16:09;17.20;82.40
44166;DHT22;30476;53.468;9.826;2023-05-10T08:18:35;17.20;83.10
44166;DHT22;30476;53.468;9.826;2023-05-10T08:21:01;17.20;83.80
44166;DHT22;30476;53.468;9.826;2023-05-10T08:23:26;17.20;83.60
44166;DHT22;30476;53.468;9.826;2023-05-10T08:25:52;17.20;83.50
44166;DHT22;30476;53.468;9.826;2023-05-10T08:28:18;17.20;83.60
44166;DHT22;30476;53.468;9.826;2023-05-10T08:30:44;17.10;84.70
44166;DHT22;30476;53.468;9.826;2023-05-10T08:33:10;17.10;85.00
44166;DHT22;30476;53.468;9.826;2023-05-10T08:35:35;17.10;85.60
44166;DHT22;30476;53.468;9.826;2023-05-10T08:38:01;17.10;85.60
44166;DHT22;30476;53.468;9.826;2023-05-10T08:40:27;17.10;85.80
44166;DHT22;30476;53.468;9.826;2023-05-10T08:43:05;17.00;86.70
44166;DHT22;30476;53.468;9.826;2023-05-10T08:45:41;17.00;87.60
44166;DHT22;30476;53.468;9.826;2023-05-10T08:48:08;17.00;89.00
44166;DHT22;30476;53.468;9.826;2023-05-10T08:50:38;17.00;89.80
44166;DHT22;30476;53.468;9.826;2023-05-10T08:53:09;17.10;88.80
44166;DHT22;30476;53.468;9.826;2023-05-10T08:55:35;17.10;88.10
44166;DHT22;30476;53.468;9.826;2023-05-10T08:58:04;17.00;88.10
44166;DHT22;30476;53.468;9.826;2023-05-10T09:00:31;17.10;88.70
44166;DHT22;30476;53.468;9.826;2023-05-10T09:03:01;17.10;88.50
44166;DHT22;30476;53.468;9.826;2023-05-10T09:05:27;17.00;88.50
44166;DHT22;30476;53.468;9.826;2023-05-10T09:07:53;17.10;89.50
44166;DHT22;30476;53.468;9.826;2023-05-10T09:10:20;17.10;90.10
44166;DHT22;30476;53.468;9.826;2023-05-10T09:12:46;17.10;89.70
44166;DHT22;30476;53.468;9.826;2023-05-10T09:15:15;17.00;89.00
44166;DHT22;30476;53.468;9.826;2023-05-10T09:17:42;17.00;89.10
44166;DHT22;30476;53.468;9.826;2023-05-10T09:20:09;17.00;89.60
44166;DHT22;30476;53.468;9.826;2023-05-10T09:22:35;17.00;90.00
44166;DHT22;30476;53.468;9.826;2023-05-10T09:27:30;16.90;90.80
44166;DHT22;30476;53.468;9.826;2023-05-10T09:29:56;16.90;91.40
44166;DHT22;30476;53.468;9.826;2023-05-10T09:32:21;16.80;91.60
44166;DHT22;30476;53.468;9.826;2023-05-10T09:34:49;16.80;91.60
44166;DHT22;30476;53.468;9.826;2023-05-10T09:37:15;16.80;91.70
44166;DHT22;30476;53.468;9.826;2023-05-10T09:39:41;16.70;91.80
44166;DHT22;30476;53.468;9.826;2023-05-10T09:42:10;16.70;92.00
44166;DHT22;30476;53.468;9.826;2023-05-10T09:44:36;16.70;92.40
44166;DHT22;30476;53.468;9.826;2023-05-10T09:47:02;16.70;93.00
44166;DHT22;30476;53.468;9.826;2023-05-10T09:49:28;16.60;93.50
44166;DHT22;30476;53.468;9.826;2023-05-10T09:52:12;16.60;93.90
44166;DHT22;30476;53.468;9.826;2023-05-10T09:54:45;16.60;94.40
44166;DHT22;30476;53.468;9.826;2023-05-10T09:57:21;16.60;94.60
44166;DHT22;30476;53.468;9.826;2023-05-10T09:59:48;16.60;94.80
44166;DHT22;30476;53.468;9.826;2023-05-10T10:02:13;16.60;95.30
44166;DHT22;30476;53.468;9.826;2023-05-10T10:04:40;16.50;95.60
44166;DHT22;30476;53.468;9.826;2023-05-10T10:07:06;16.50;96.00
44166;DHT22;30476;53.468;9.826;2023-05-10T10:09:33;16.40;96.30
44166;DHT22;30476;53.468;9.826;2023-05-10T10:12:00;16.50;96.80
44166;DHT22;30476;53.468;9.826;2023-05-10T10:14:26;16.40;97.20
44166;DHT22;30476;53.468;9.826;2023-05-10T10:16:52;16.40;97.80
44166;DHT22;30476;53.468;9.826;2023-05-10T10:19:19;16.30;98.30
44166;DHT22;30476;53.468;9.826;2023-05-10T10:21:46;16.30;98.50
44166;DHT22;30476;53.468;9.826;2023-05-10T10:24:11;16.30;99.10
44166;DHT22;30476;53.468;9.826;2023-05-10T10:26:37;16.20;99.50
44166;DHT22;30476;53.468;9.826;2023-05-10T10:29:26;16.20;99.90
44166;DHT22;30476;53.468;9.826;2023-05-10T10:32:22;16.20;99.90
44166;DHT22;30476;53.468;9.826;2023-05-10T10:34:49;16.20;99.90
44166;DHT22;30476;53.468;9.826;2023-05-10T10:37:15;16.20;99.90
44166;DHT22;30476;53.468;9.826;2023-05-10T10:39:41;16.20;99.90
44166;DHT22;30476;53.468;9.826;2023-05-10T10:42:07;16.10;99.90
44166;DHT22;30476;53.468;9.826;2023-05-10T10:44:34;16.10;99.90
44166;DHT22;30476;53.468;9.826;2023-05-10T10:52:22;16.00;99.90
44166;DHT22;30476;53.468;9.826;2023-05-10T10:54:54;16.00;99.90
44166;DHT22;30476;53.468;9.826;2023-05-10T10:57:22;16.00;99.90
44166;DHT22;30476;53.468;9.826;2023-05-10T10:59:48;16.00;99.90
44166;DHT22;30476;53.468;9.826;2023-05-10T11:02:43;16.10;99.90
44166;DHT22;30476;53.468;9.826;2023-05-10T11:07:59;16.10;99.90
44166;DHT22;30476;53.468;9.826;2023-05-10T11:10:26;16.10;99.90
44166;DHT22;30476;53.468;9.826;2023-05-10T11:12:54;16.10;99.90
44166;DHT22;30476;53.468;9.826;2023-05-10T11:15:37;16.10;99.90
44166;DHT22;30476;53.468;9.826;2023-05-10T11:18:30;16.10;99.90
44166;DHT22;30476;53.468;9.826;2023-05-10T11:21:00;16.10;99.90
44166;DHT22;30476;53.468;9.826;2023-05-10T11:23:33;16.10;99.90
44166;DHT22;30476;53.468;9.826;2023-05-10T11:26:13;16.10;99.90
44166;DHT22;30476;53.468;9.826;2023-05-10T11:28:46;16.20;99.90
44166;DHT22;30476;53.468;9.826;2023-05-10T11:31:14;16.10;99.90
44166;DHT22;30476;53.468;9.826;2023-05-10T11:33:49;16.10;99.90
44166;DHT22;30476;53.468;9.826;2023-05-10T11:36:29;16.10;99.90
44166;DHT22;30476;53.468;9.826;2023-05-10T11:38:55;16.10;99.90
44166;DHT22;30476;53.468;9.826;2023-05-10T11:41:22;16.20;99.90
44166;DHT22;30476;53.468;9.826;2023-05-10T11:43:52;16.20;99.90
44166;DHT22;30476;53.468;9.826;2023-05-10T11:46:23;16.30;99.90
44166;DHT22;30476;53.468;9.826;2023-05-10T11:48:51;16.30;99.90
44166;DHT22;30476;53.468;9.826;2023-05-10T11:51:24;16.30;99.90
44166;DHT22;30476;53.468;9.826;2023-05-10T11:53:55;16.30;99.90
44166;DHT22;30476;53.468;9.826;2023-05-10T11:56:21;16.30;99.90
44166;DHT22;30476;53.468;9.826;2023-05-10T11:58:56;16.30;99.90
44166;DHT22;30476;53.468;9.826;2023-05-10T12:01:22;16.30;99.90
44166;DHT22;30476;53.468;9.826;2023-05-10T12:03:53;16.40;99.90
44166;DHT22;30476;53.468;9.826;2023-05-10T12:06:20;16.40;99.90
44166;DHT22;30476;53.468;9.826;2023-05-10T12:08:47;16.40;99.90
44166;DHT22;30476;53.468;9.826;2023-05-10T12:11:13;16.40;99.90
44166;DHT22;30476;53.468;9.826;2023-05-10T12:13:42;16.50;99.90
44166;DHT22;30476;53.468;9.826;2023-05-10T12:16:19;16.50;99.90
44166;DHT22;30476;53.468;9.826;2023-05-10T12:18:48;16.60;99.90
44166;DHT22;30476;53.468;9.826;2023-05-10T12:21:15;16.60;99.90
44166;DHT22;30476;53.468;9.826;2023-05-10T12:23:40;16.60;99.90
44166;DHT22;30476;53.468;9.826;2023-05-10T12:26:09;16.70;99.90
44166;DHT22;30476;53.468;9.826;2023-05-10T12:28:36;16.80;99.90
44166;DHT22;30476;53.468;9.826;2023-05-10T12:31:02;16.80;99.90
44166;DHT22;30476;53.468;9.826;2023-05-10T12:33:39;16.90;99.90
44166;DHT22;30476;53.468;9.826;2023-05-10T12:36:12;16.90;99.90
44166;DHT22;30476;53.468;9.826;2023-05-10T12:38:39;17.00;99.90
44166;DHT22;30476;53.468;9.826;2023-05-10T12:41:09;17.10;99.90
44166;DHT22;30476;53.468;9.826;2023-05-10T12:43:36;17.10;99.90
44166;DHT22;30476;53.468;9.826;2023-05-10T12:46:09;17.10;99.90
44166;DHT22;30476;53.468;9.826;2023-05-10T12:48:36;17.10;99.90
44166;DHT22;30476;53.468;9.826;2023-05-10T12:51:03;17.20;99.90
44166;DHT22;30476;53.468;9.826;2023-05-10T12:53:29;17.20;99.90
44166;DHT22;30476;53.468;9.826;2023-05-10T12:55:55;17.20;99.90
44166;DHT22;30476;53.468;9.826;2023-05-10T12:58:21;17.30;99.90
44166;DHT22;30476;53.468;9.826;2023-05-10T13:00:47;17.40;99.90
44166;DHT22;30476;53.468;9.826;2023-05-10T13:03:13;17.40;99.90
44166;DHT22;30476;53.468;9.826;2023-05-10T13:05:39;17.30;99.90
44166;DHT22;30476;53.468;9.826;2023-05-10T13:08:05;17.40;99.90
44166;DHT22;30476;53.468;9.826;2023-05-10T13:10:31;17.40;99.90
44166;DHT22;30476;53.468;9.826;2023-05-10T13:12:58;17.50;99.90
44166;DHT22;30476;53.468;9.826;2023-05-10T13:15:24;17.60;99.90
44166;DHT22;30476;53.468;9.826;2023-05-10T13:17:50;17.70;99.90
44166;DHT22;30476;53.468;9.826;2023-05-10T13:20:16;17.70;99.90
44166;DHT22;30476;53.468;9.826;2023-05-10T13:22:43;17.80;99.90
44166;DHT22;30476;53.468;9.826;2023-05-10T13:25:09;17.80;99.90
44166;DHT22;30476;53.468;9.826;2023-05-10T13:27:35;17.90;99.90
44166;DHT22;30476;53.468;9.826;2023-05-10T13:30:02;17.90;99.90
44166;DHT22;30476;53.468;9.826;2023-05-10T13:32:28;18.00;99.90
44166;DHT22;30476;53.468;9.826;2023-05-10T13:34:55;18.00;99.90
44166;DHT22;30476;53.468;9.826;2023-05-10T13:37:21;18.10;99.90
44166;DHT22;30476;53.468;9.826;2023-05-10T13:39:47;18.10;99.90
44166;DHT22;30476;53.468;9.826;2023-05-10T13:42:13;18.10;99.90
44166;DHT22;30476;53.468;9.826;2023-05-10T13:44:39;18.20;99.90
44166;DHT22;30476;53.468;9.826;2023-05-10T13:47:05;18.20;99.90
44166;DHT22;30476;53.468;9.826;2023-05-10T13:49:31;18.30;99.90
44166;DHT22;30476;53.468;9.826;2023-05-10T13:51:57;18.30;99.90
44166;DHT22;30476;53.468;9.826;2023-05-10T13:54:23;18.50;99.90
44166;DHT22;30476;53.468;9.826;2023-05-10T13:56:49;18.50;99.90
44166;DHT22;30476;53.468;9.826;2023-05-10T13:59:15;18.60;99.90
44166;DHT22;30476;53.468;9.826;2023-05-10T14:01:41;18.60;99.90
44166;DHT22;30476;53.468;9.826;2023-05-10T14:04:08;18.70;99.90
44166;DHT22;30476;53.468;9.826;2023-05-10T14:06:37;18.80;99.90
44166;DHT22;30476;53.468;9.826;2023-05-10T14:09:03;18.80;99.90
44166;DHT22;30476;53.468;9.826;2023-05-10T14:11:29;18.90;99.90
44166;DHT22;30476;53.468;9.826;2023-05-10T14:13:55;18.90;99.90
44166;DHT22;30476;53.468;9.826;2023-05-10T14:16:20;19.00;99.90
44166;DHT22;30476;53.468;9.826;2023-05-10T14:18:46;19.00;99.90
44166;DHT22;30476;53.468;9.826;2023-05-10T14:21:13;19.00;99.90
44166;DHT22;30476;53.468;9.826;2023-05-10T14:23:39;19.00;99.90
44166;DHT22;30476;53.468;9.826;2023-05-10T14:26:04;19.10;99.90
44166;DHT22;30476;53.468;9.826;2023-05-10T14:28:30;19.20;99.90
44166;DHT22;30476;53.468;9.826;2023-05-10T14:30:56;19.20;99.90
44166;DHT22;30476;53.468;9.826;2023-05-10T14:33:22;19.20;99.90
44166;DHT22;30476;53.468;9.826;2023-05-10T14:35:48;19.30;99.90
44166;DHT22;30476;53.468;9.826;2023-05-10T14:38:14;19.40;99.90
44166;DHT22;30476;53.468;9.826;2023-05-10T14:40:40;19.40;99.90
44166;DHT22;30476;53.468;9.826;2023-05-10T14:43:06;19.50;99.90
44166;DHT22;30476;53.468;9.826;2023-05-10T14:45:31;19.50;99.90
44166;DHT22;30476;53.468;9.826;2023-05-10T14:47:58;19.60;99.90
44166;DHT22;30476;53.468;9.826;2023-05-10T14:50:24;19.60;99.90
44166;DHT22;30476;53.468;9.826;2023-05-10T14:52:50;19.60;99.90
44166;DHT22;30476;53.468;9.826;2023-05-10T14:55:16;19.60;99.90
44166;DHT22;30476;53.468;9.826;2023-05-10T14:57:41;19.60;99.90
44166;DHT22;30476;53.468;9.826;2023-05-10T15:00:08;19.60;99.90
44166;DHT22;30476;53.468;9.826;2023-05-10T15:02:33;19.70;99.90
44166;DHT22;30476;53.468;9.826;2023-05-10T15:04:59;19.60;99.90
44166;DHT22;30476;53.468;9.826;2023-05-10T15:07:25;19.60;99.90
44166;DHT22;30476;53.468;9.826;2023-05-10T15:09:51;19.60;99.90
44166;DHT22;30476;53.468;9.826;2023-05-10T15:12:18;19.60;99.90
44166;DHT22;30476;53.468;9.826;2023-05-10T15:14:44;19.60;99.90
44166;DHT22;30476;53.468;9.826;2023-05-10T15:17:10;19.60;99.90
44166;DHT22;30476;53.468;9.826;2023-05-10T15:19:36;19.50;99.90
44166;DHT22;30476;53.468;9.826;2023-05-10T15:22:04;19.50;99.90
44166;DHT22;30476;53.468;9.826;2023-05-10T15:24:30;19.40;99.90
44166;DHT22;30476;53.468;9.826;2023-05-10T15:26:56;19.40;99.90
44166;DHT22;30476;53.468;9.826;2023-05-10T15:29:22;19.30;99.90
44166;DHT22;30476;53.468;9.826;2023-05-10T15:31:49;19.20;99.90
44166;DHT22;30476;53.468;9.826;2023-05-10T15:34:15;19.10;99.90
44166;DHT22;30476;53.468;9.826;2023-05-10T15:36:41;19.00;99.90
44166;DHT22;30476;53.468;9.826;2023-05-10T15:39:07;18.90;99.90
44166;DHT22;30476;53.468;9.826;2023-05-10T15:41:35;18.80;99.90
44166;DHT22;30476;53.468;9.826;2023-05-10T15:44:01;18.70;99.90
44166;DHT22;30476;53.468;9.826;2023-05-10T15:46:28;18.60;99.90
44166;DHT22;30476;53.468;9.826;2023-05-10T15:48:54;18.60;99.90
44166;DHT22;30476;53.468;9.826;2023-05-10T15:51:20;18.50;99.90
44166;DHT22;30476;53.468;9.826;2023-05-10T15:53:45;18.50;99.90
44166;DHT22;30476;53.468;9.826;2023-05-10T15:56:11;18.40;99.90